ΕΜΥ, Εθνική Μετεωρολογική Υπηρεσία - Δελτία Καιρού, Προγνώσεις

ΑΕΡΟΝΑΥΤΙΛΙΑ

GREEK AIRPORTS CODES

LGAL 221150Z 20007KT 9999 SCT035 17/07 Q1017=

EUROPEAN AIRPORTS CODES

LFPO 221200Z 02010KT 330V060 9999 FEW053TCU BKN053 09/M02Q1024 TEMPO 4000 -SHRA SCT030TCU=